createdAt,value
2017-03-25T00:00:10.437Z,0
2017-03-25T00:01:10.413Z,0
2017-03-25T00:02:10.122Z,0
2017-03-25T00:03:10.380Z,0
2017-03-25T00:04:10.371Z,0
2017-03-25T00:05:10.358Z,0
2017-03-25T00:06:10.339Z,0
2017-03-25T00:07:10.333Z,0
2017-03-25T00:08:10.315Z,0
2017-03-25T00:09:10.297Z,0
2017-03-25T00:10:10.282Z,0
2017-03-25T00:11:10.272Z,0
2017-03-25T00:12:10.256Z,0
2017-03-25T00:13:10.243Z,0
2017-03-25T00:14:10.229Z,0
2017-03-25T00:15:10.218Z,0
2017-03-25T00:16:09.897Z,0
2017-03-25T00:17:09.886Z,0
2017-03-25T00:18:10.170Z,0
2017-03-25T00:19:10.167Z,0
2017-03-25T00:20:10.142Z,0
2017-03-25T00:21:10.133Z,0
2017-03-25T00:22:10.113Z,0
2017-03-25T00:23:09.835Z,0
2017-03-25T00:24:10.090Z,0
2017-03-25T00:25:10.074Z,0
2017-03-25T00:26:10.065Z,0
2017-03-25T00:27:10.044Z,0
2017-03-25T00:28:10.027Z,0
2017-03-25T00:29:10.022Z,0
2017-03-25T00:30:09.699Z,0
2017-03-25T00:31:09.693Z,0
2017-03-25T00:32:09.970Z,0
2017-03-25T00:33:09.960Z,0
2017-03-25T00:34:09.950Z,0
2017-03-25T00:35:09.932Z,0
2017-03-25T00:36:09.916Z,0
2017-03-25T00:37:09.602Z,0
2017-03-25T00:38:09.888Z,0
2017-03-25T00:39:09.871Z,0
2017-03-25T00:40:09.558Z,0
2017-03-25T00:41:09.849Z,0
2017-03-25T00:42:09.831Z,0
2017-03-25T00:43:09.821Z,0
2017-03-25T00:44:09.807Z,0
2017-03-25T00:45:09.795Z,0
2017-03-25T00:46:09.781Z,0
2017-03-25T00:47:09.762Z,0
2017-03-25T00:48:09.790Z,0
2017-03-25T00:49:09.729Z,0
2017-03-25T00:50:09.725Z,0
2017-03-25T00:51:09.715Z,0
2017-03-25T00:52:09.388Z,0
2017-03-25T00:53:09.684Z,0
2017-03-25T00:54:09.669Z,0
2017-03-25T00:55:09.651Z,0
2017-03-25T00:56:09.641Z,0
2017-03-25T00:57:09.631Z,0
2017-03-25T00:58:09.612Z,0
2017-03-25T00:59:09.590Z,0
2017-03-25T01:00:09.588Z,0
2017-03-25T01:01:09.572Z,0
2017-03-25T01:02:09.565Z,0
2017-03-25T01:03:09.543Z,0
2017-03-25T01:04:09.237Z,0
2017-03-25T01:05:09.521Z,0
2017-03-25T01:06:09.501Z,0
2017-03-25T01:07:09.485Z,0
2017-03-25T01:08:09.483Z,0
2017-03-25T01:09:09.458Z,0
2017-03-25T01:10:09.448Z,0
2017-03-25T01:11:09.433Z,0
2017-03-25T01:12:09.421Z,0
2017-03-25T01:13:09.409Z,0
2017-03-25T01:14:09.395Z,0
2017-03-25T01:15:09.379Z,0
2017-03-25T01:16:09.368Z,0
2017-03-25T01:17:09.359Z,0
2017-03-25T01:18:09.339Z,0
2017-03-25T01:19:09.326Z,0
2017-03-25T01:20:09.308Z,0
2017-03-25T01:21:09.295Z,0
2017-03-25T01:22:09.279Z,0
2017-03-25T01:23:09.273Z,0
2017-03-25T01:24:09.250Z,0
2017-03-25T01:25:09.243Z,0
2017-03-25T01:26:09.227Z,0
2017-03-25T01:27:09.214Z,0
2017-03-25T01:28:09.243Z,0
2017-03-25T01:29:09.183Z,0
2017-03-25T01:30:08.870Z,0
2017-03-25T01:31:09.158Z,0
2017-03-25T01:32:09.137Z,0
2017-03-25T01:33:09.127Z,0
2017-03-25T01:34:09.112Z,0
2017-03-25T01:35:09.106Z,0
2017-03-25T01:36:08.778Z,0
2017-03-25T01:37:09.068Z,0
2017-03-25T01:38:09.053Z,0
2017-03-25T01:39:09.041Z,0
2017-03-25T01:40:09.021Z,0
2017-03-25T01:41:09.008Z,0
2017-03-25T01:42:08.993Z,0
2017-03-25T01:43:08.978Z,0
2017-03-25T01:44:08.962Z,0
2017-03-25T01:45:08.958Z,0
2017-03-25T01:46:08.635Z,0
2017-03-25T01:47:08.923Z,0
2017-03-25T01:48:08.906Z,0
2017-03-25T01:49:08.927Z,0
2017-03-25T01:50:08.575Z,0
2017-03-25T01:51:08.864Z,0
2017-03-25T01:52:08.546Z,0
2017-03-25T01:53:08.836Z,0
2017-03-25T01:54:08.818Z,0
2017-03-25T01:55:08.804Z,0
2017-03-25T01:56:08.788Z,0
2017-03-25T01:57:08.475Z,0
2017-03-25T01:58:08.469Z,0
2017-03-25T01:59:08.751Z,0
2017-03-25T02:00:08.735Z,0
2017-03-25T02:01:08.722Z,0
2017-03-25T02:02:08.405Z,0
2017-03-25T02:03:08.691Z,0
2017-03-25T02:04:08.679Z,0
2017-03-25T02:05:08.667Z,0
2017-03-25T02:06:08.648Z,0
2017-03-25T02:07:08.641Z,0
2017-03-25T02:08:08.319Z,0
2017-03-25T02:09:08.603Z,0
2017-03-25T02:10:08.595Z,0
2017-03-25T02:11:08.577Z,0
2017-03-25T02:12:08.567Z,0
2017-03-25T02:13:08.549Z,0
2017-03-25T02:14:08.536Z,0
2017-03-25T02:15:08.526Z,0
2017-03-25T02:16:08.566Z,0
2017-03-25T02:17:08.510Z,0
2017-03-25T02:18:08.472Z,0
2017-03-25T02:19:08.463Z,0
2017-03-25T02:20:08.447Z,0
2017-03-25T02:21:08.439Z,0
2017-03-25T02:22:08.422Z,0
2017-03-25T02:23:08.407Z,0
2017-03-25T02:24:08.396Z,0
2017-03-25T02:25:08.077Z,0
2017-03-25T02:26:08.061Z,0
2017-03-25T02:27:08.352Z,0
2017-03-25T02:28:08.337Z,0
2017-03-25T02:29:08.333Z,0
2017-03-25T02:30:08.009Z,0
2017-03-25T02:31:08.304Z,0
2017-03-25T02:32:08.288Z,0
2017-03-25T02:33:08.268Z,0
2017-03-25T02:34:08.253Z,0
2017-03-25T02:35:08.246Z,0
2017-03-25T02:36:08.228Z,0
2017-03-25T02:37:08.214Z,0
2017-03-25T02:38:08.196Z,0
2017-03-25T02:39:08.182Z,0
2017-03-25T02:40:08.165Z,0
2017-03-25T02:41:08.160Z,0
2017-03-25T02:42:07.839Z,0
2017-03-25T02:43:08.131Z,0
2017-03-25T02:44:08.111Z,0
2017-03-25T02:45:07.800Z,0
2017-03-25T02:46:08.095Z,0
2017-03-25T02:47:08.081Z,0
2017-03-25T02:48:08.079Z,0
2017-03-25T02:49:08.045Z,0
2017-03-25T02:50:08.041Z,0
2017-03-25T02:51:08.023Z,0
2017-03-25T02:52:08.010Z,0
2017-03-25T02:53:07.998Z,0
2017-03-25T02:54:07.974Z,0
2017-03-25T02:55:07.971Z,0
2017-03-25T02:56:07.945Z,0
2017-03-25T02:57:07.934Z,0
2017-03-25T02:58:07.922Z,0
2017-03-25T02:59:07.901Z,0
2017-03-25T03:00:07.894Z,0
2017-03-25T03:01:07.877Z,0
2017-03-25T03:02:07.562Z,0
2017-03-25T03:03:07.853Z,0
2017-03-25T03:04:07.833Z,0
2017-03-25T03:05:07.823Z,0
2017-03-25T03:06:07.803Z,0
2017-03-25T03:07:07.796Z,0
2017-03-25T03:08:07.473Z,0
2017-03-25T03:09:07.760Z,0
2017-03-25T03:10:07.446Z,0
2017-03-25T03:11:07.731Z,0
2017-03-25T03:12:07.717Z,0
2017-03-25T03:13:07.695Z,0
2017-03-25T03:14:07.385Z,0
2017-03-25T03:15:07.680Z,0
2017-03-25T03:16:07.664Z,0
2017-03-25T03:17:07.645Z,0
2017-03-25T03:18:07.634Z,0
2017-03-25T03:19:07.616Z,0
2017-03-25T03:20:07.604Z,0
2017-03-25T03:21:07.581Z,0
2017-03-25T03:22:07.566Z,0
2017-03-25T03:23:07.567Z,0
2017-03-25T03:24:07.242Z,0
2017-03-25T03:25:07.222Z,0
2017-03-25T03:26:07.227Z,0
2017-03-25T03:27:07.200Z,0
2017-03-25T03:28:07.486Z,0
2017-03-25T03:29:07.473Z,0
2017-03-25T03:30:07.457Z,0
2017-03-25T03:31:07.443Z,0
2017-03-25T03:32:07.431Z,0
2017-03-25T03:33:07.459Z,0
2017-03-25T03:34:07.401Z,0
2017-03-25T03:35:07.388Z,0
2017-03-25T03:36:07.419Z,0
2017-03-25T03:37:07.358Z,0
2017-03-25T03:38:07.344Z,0
2017-03-25T03:39:07.340Z,0
2017-03-25T03:40:07.315Z,0
2017-03-25T03:41:07.296Z,0
2017-03-25T03:42:07.292Z,0
2017-03-25T03:43:07.278Z,0
2017-03-25T03:44:07.263Z,0
2017-03-25T03:45:07.243Z,0
2017-03-25T03:46:07.227Z,0
2017-03-25T03:47:07.228Z,0
2017-03-25T03:48:07.201Z,0
2017-03-25T03:49:07.196Z,0
2017-03-25T03:50:07.175Z,0
2017-03-25T03:51:07.160Z,0
2017-03-25T03:52:07.144Z,0
2017-03-25T03:53:07.157Z,0
2017-03-25T03:54:07.115Z,0
2017-03-25T03:55:07.106Z,0
2017-03-25T03:56:07.091Z,0
2017-03-25T03:57:07.076Z,0
2017-03-25T03:58:07.070Z,0
2017-03-25T03:59:07.047Z,0
2017-03-25T04:00:07.036Z,0
2017-03-25T04:01:07.021Z,0
2017-03-25T04:02:07.038Z,0
2017-03-25T04:03:06.997Z,0
2017-03-25T04:04:06.980Z,0
2017-03-25T04:05:06.968Z,0
2017-03-25T04:06:06.958Z,0
2017-03-25T04:07:06.638Z,0
2017-03-25T04:08:06.926Z,0
2017-03-25T04:09:06.909Z,0
2017-03-25T04:10:06.895Z,0
2017-03-25T04:11:06.891Z,0
2017-03-25T04:12:06.870Z,0
2017-03-25T04:13:06.864Z,0
2017-03-25T04:14:06.849Z,0
2017-03-25T04:15:06.836Z,0
2017-03-25T04:16:06.823Z,0
2017-03-25T04:17:06.804Z,0
2017-03-25T04:18:06.804Z,0
2017-03-25T04:19:06.779Z,0
2017-03-25T04:20:06.776Z,0
2017-03-25T04:21:06.756Z,0
2017-03-25T04:22:06.746Z,0
2017-03-25T04:23:06.734Z,0
2017-03-25T04:24:06.724Z,0
2017-03-25T04:25:06.707Z,0
2017-03-25T04:26:06.692Z,0
2017-03-25T04:27:06.674Z,0
2017-03-25T04:28:06.667Z,0
2017-03-25T04:29:06.357Z,0
2017-03-25T04:30:06.644Z,0
2017-03-25T04:31:06.328Z,0
2017-03-25T04:32:06.617Z,0
2017-03-25T04:33:06.613Z,0
2017-03-25T04:34:06.598Z,0
2017-03-25T04:35:06.580Z,0
2017-03-25T04:36:06.557Z,4
2017-03-25T04:37:06.548Z,0
2017-03-25T04:38:06.538Z,0
2017-03-25T04:39:06.522Z,4
2017-03-25T04:40:06.509Z,4
2017-03-25T04:41:06.503Z,4
2017-03-25T04:42:06.489Z,8
2017-03-25T04:43:06.483Z,8
2017-03-25T04:44:06.457Z,8
2017-03-25T04:45:06.463Z,8
2017-03-25T04:46:06.433Z,12
2017-03-25T04:47:06.421Z,12
2017-03-25T04:48:06.408Z,20
2017-03-25T04:49:06.394Z,24
2017-03-25T04:50:06.383Z,28
2017-03-25T04:51:06.384Z,36
2017-03-25T04:52:06.353Z,40
2017-03-25T04:53:06.046Z,48
2017-03-25T04:54:06.335Z,60
2017-03-25T04:55:06.322Z,68
2017-03-25T04:56:06.308Z,84
2017-03-25T04:57:06.285Z,100
2017-03-25T04:58:06.280Z,116
2017-03-25T04:59:06.273Z,140
2017-03-25T05:00:06.253Z,156
2017-03-25T05:01:06.252Z,184
2017-03-25T05:02:06.226Z,212
2017-03-25T05:03:06.212Z,240
2017-03-25T05:04:06.202Z,276
2017-03-25T05:05:06.188Z,312
2017-03-25T05:06:06.175Z,352
2017-03-25T05:07:06.202Z,396
2017-03-25T05:08:06.150Z,444
2017-03-25T05:09:05.836Z,492
2017-03-25T05:10:05.515Z,548
2017-03-25T05:11:05.815Z,608
2017-03-25T05:12:06.094Z,676
2017-03-25T05:13:06.090Z,752
2017-03-25T05:14:06.074Z,828
2017-03-25T05:15:06.057Z,912
2017-03-25T05:16:06.048Z,1008
2017-03-25T05:17:06.035Z,1096
2017-03-25T05:18:06.025Z,1168
2017-03-25T05:19:06.009Z,1248
2017-03-25T05:20:05.992Z,1344
2017-03-25T05:21:05.977Z,1452
2017-03-25T05:22:05.963Z,1564
2017-03-25T05:23:05.951Z,1684
2017-03-25T05:24:05.944Z,1852
2017-03-25T05:25:05.931Z,2032
2017-03-25T05:26:05.907Z,2200
2017-03-25T05:27:05.889Z,2340
2017-03-25T05:28:05.883Z,2476
2017-03-25T05:29:05.873Z,2616
2017-03-25T05:30:05.861Z,2760
2017-03-25T05:31:05.843Z,2920
2017-03-25T05:32:05.833Z,3068
2017-03-25T05:33:05.817Z,3152
2017-03-25T05:34:05.812Z,3244
2017-03-25T05:35:05.786Z,3400
2017-03-25T05:36:05.775Z,3572
2017-03-25T05:37:05.761Z,3708
2017-03-25T05:38:05.755Z,3780
2017-03-25T05:39:05.740Z,3848
2017-03-25T05:40:05.728Z,4016
2017-03-25T05:41:05.713Z,4292
2017-03-25T05:42:05.700Z,4472
2017-03-25T05:43:05.690Z,4612
2017-03-25T05:44:05.682Z,4768
2017-03-25T05:45:05.355Z,4916
2017-03-25T05:46:05.654Z,4980
2017-03-25T05:47:05.635Z,4872
2017-03-25T05:48:05.624Z,4832
2017-03-25T05:49:05.615Z,4972
2017-03-25T05:50:05.602Z,5136
2017-03-25T05:51:05.583Z,5508
2017-03-25T05:52:05.584Z,5972
2017-03-25T05:53:05.561Z,6168
2017-03-25T05:54:05.548Z,6440
2017-03-25T05:55:05.545Z,6640
2017-03-25T05:56:05.521Z,6944
2017-03-25T05:57:05.209Z,7236
2017-03-25T05:58:05.547Z,7424
2017-03-25T05:59:05.492Z,7768
2017-03-25T06:00:05.177Z,7860
2017-03-25T06:01:05.467Z,7612
2017-03-25T06:02:05.455Z,7720
2017-03-25T06:03:05.439Z,8072
2017-03-25T06:04:05.435Z,8484
2017-03-25T06:05:05.116Z,8772
2017-03-25T06:06:05.447Z,8984
2017-03-25T06:07:05.086Z,8668
2017-03-25T06:08:05.083Z,8764
2017-03-25T06:09:05.373Z,9632
2017-03-25T06:10:05.359Z,9828
2017-03-25T06:11:05.339Z,9928
2017-03-25T06:12:05.336Z,11148
2017-03-25T06:13:05.321Z,10944
2017-03-25T06:14:05.319Z,10588
2017-03-25T06:15:05.299Z,11664
2017-03-25T06:16:05.287Z,12516
2017-03-25T06:17:05.277Z,12456
2017-03-25T06:18:05.271Z,13232
2017-03-25T06:19:05.260Z,13776
2017-03-25T06:20:04.946Z,14484
2017-03-25T06:21:05.232Z,15116
2017-03-25T06:22:05.224Z,14544
2017-03-25T06:23:05.265Z,14156
2017-03-25T06:24:05.213Z,15428
2017-03-25T06:25:05.190Z,16608
2017-03-25T06:26:05.180Z,16256
2017-03-25T06:27:05.176Z,15488
2017-03-25T06:28:05.162Z,16096
2017-03-25T06:29:05.143Z,17792
2017-03-25T06:30:05.138Z,18240
2017-03-25T06:31:05.136Z,18304
2017-03-25T06:32:05.116Z,17632
2017-03-25T06:33:05.165Z,19008
2017-03-25T06:34:04.800Z,19648
2017-03-25T06:35:04.795Z,20480
2017-03-25T06:36:05.091Z,23392
2017-03-25T06:37:05.072Z,23104
2017-03-25T06:38:05.063Z,21792
2017-03-25T06:39:05.064Z,21952
2017-03-25T06:40:05.044Z,23648
2017-03-25T06:41:05.035Z,26144
2017-03-25T06:42:05.024Z,24832
2017-03-25T06:43:05.017Z,23008
2017-03-25T06:44:05.009Z,22848
2017-03-25T06:45:05.004Z,22464
2017-03-25T06:46:04.993Z,22368
2017-03-25T06:47:04.988Z,21152
2017-03-25T06:48:04.977Z,21888
2017-03-25T06:49:04.674Z,22016
2017-03-25T06:50:04.661Z,22144
2017-03-25T06:51:04.956Z,23264
2017-03-25T06:52:04.952Z,24608
2017-03-25T06:53:04.646Z,26688
2017-03-25T06:54:04.940Z,28128
2017-03-25T06:55:04.928Z,28960
2017-03-25T06:56:04.929Z,27232
2017-03-25T06:57:04.908Z,26880
2017-03-25T06:58:04.906Z,24000
2017-03-25T06:59:04.905Z,24832
2017-03-25T07:00:04.896Z,28256
2017-03-25T07:01:04.892Z,27040
2017-03-25T07:02:04.880Z,25408
2017-03-25T07:03:04.889Z,27904
2017-03-25T07:04:04.870Z,28320
2017-03-25T07:05:04.863Z,28576
2017-03-25T07:06:04.857Z,27616
2017-03-25T07:07:04.853Z,27968
2017-03-25T07:08:04.843Z,31392
2017-03-25T07:09:04.843Z,31456
2017-03-25T07:10:04.830Z,29024
2017-03-25T07:11:04.824Z,29504
2017-03-25T07:12:04.821Z,32256
2017-03-25T07:13:04.816Z,32352
2017-03-25T07:14:04.805Z,34432
2017-03-25T07:15:04.804Z,32736
2017-03-25T07:16:04.791Z,31552
2017-03-25T07:17:04.791Z,32672
2017-03-25T07:18:04.790Z,33024
2017-03-25T07:19:04.789Z,34720
2017-03-25T07:20:04.777Z,35744
2017-03-25T07:21:04.766Z,34336
2017-03-25T07:22:04.758Z,36320
2017-03-25T07:23:04.760Z,40864
2017-03-25T07:24:04.749Z,42752
2017-03-25T07:25:04.741Z,34208
2017-03-25T07:26:04.740Z,26176
2017-03-25T07:27:04.731Z,24448
2017-03-25T07:28:04.743Z,26112
2017-03-25T07:29:04.728Z,29536
2017-03-25T07:30:04.719Z,35648
2017-03-25T07:31:04.712Z,42016
2017-03-25T07:32:04.722Z,41824
2017-03-25T07:33:04.700Z,39936
2017-03-25T07:34:04.691Z,38048
2017-03-25T07:35:04.690Z,40960
2017-03-25T07:36:04.690Z,42720
2017-03-25T07:37:04.675Z,41088
2017-03-25T07:38:04.674Z,42624
2017-03-25T07:39:04.676Z,47456
2017-03-25T07:40:04.663Z,45120
2017-03-25T07:41:04.658Z,38400
2017-03-25T07:42:04.355Z,38240
2017-03-25T07:43:04.655Z,41888
2017-03-25T07:44:04.647Z,47040
2017-03-25T07:45:04.644Z,44128
2017-03-25T07:46:04.630Z,41856
2017-03-25T07:47:04.634Z,49344
2017-03-25T07:48:04.672Z,46784
2017-03-25T07:49:04.621Z,48032
2017-03-25T07:50:04.621Z,50848
2017-03-25T07:51:04.306Z,51488
2017-03-25T07:52:04.617Z,47744
2017-03-25T07:53:04.314Z,42144
2017-03-25T07:54:04.605Z,34496
2017-03-25T07:55:04.610Z,32640
2017-03-25T07:56:04.590Z,34368
2017-03-25T07:57:04.596Z,46496
2017-03-25T07:58:04.593Z,53792
2017-03-25T07:59:04.583Z,49216
2017-03-25T08:00:04.584Z,50304
2017-03-25T08:01:04.569Z,52288
2017-03-25T08:02:04.570Z,52128
2017-03-25T08:03:04.566Z,44608
2017-03-25T08:04:04.568Z,36544
2017-03-25T08:05:04.558Z,39520
2017-03-25T08:06:04.559Z,42624
2017-03-25T08:07:04.547Z,47264
2017-03-25T08:08:04.550Z,50656
2017-03-25T08:09:04.543Z,49952
2017-03-25T08:10:04.541Z,52448
2017-03-25T08:11:04.528Z,56544
2017-03-25T08:12:04.523Z,52672
2017-03-25T08:13:04.222Z,45248
2017-03-25T08:14:04.519Z,45824
2017-03-25T08:15:04.507Z,53120
2017-03-25T08:16:04.506Z,53856
2017-03-25T08:17:04.492Z,49888
2017-03-25T08:18:04.493Z,51840
2017-03-25T08:19:04.476Z,55648
2017-03-25T08:20:04.473Z,52896
2017-03-25T08:21:04.455Z,51616
2017-03-25T08:22:04.460Z,53376
2017-03-25T08:23:04.451Z,56448
2017-03-25T08:24:04.440Z,60960
2017-03-25T08:25:04.433Z,62400
2017-03-25T08:26:04.436Z,57408
2017-03-25T08:27:04.422Z,48960
2017-03-25T08:28:04.425Z,50208
2017-03-25T08:29:04.410Z,53824
2017-03-25T08:30:04.397Z,53760
2017-03-25T08:31:04.383Z,57088
2017-03-25T08:32:04.387Z,59104
2017-03-25T08:33:04.370Z,61696
2017-03-25T08:34:04.367Z,62848
2017-03-25T08:35:04.055Z,64160
2017-03-25T08:36:04.356Z,65408
2017-03-25T08:37:04.351Z,63200
2017-03-25T08:38:04.345Z,56832
2017-03-25T08:39:04.339Z,56960
2017-03-25T08:40:04.330Z,57632
2017-03-25T08:41:04.329Z,63680
2017-03-25T08:42:04.325Z,62048
2017-03-25T08:43:04.321Z,63328
2017-03-25T08:44:04.320Z,63168
2017-03-25T08:45:04.312Z,62624
2017-03-25T08:46:04.308Z,65856
2017-03-25T08:47:04.301Z,71232
2017-03-25T08:48:04.291Z,74688
2017-03-25T08:49:04.292Z,68160
2017-03-25T08:50:04.288Z,60736
2017-03-25T08:51:04.284Z,59520
2017-03-25T08:52:04.281Z,60384
2017-03-25T08:53:04.275Z,55680
2017-03-25T08:54:04.274Z,48544
2017-03-25T08:55:04.265Z,45664
2017-03-25T08:56:04.259Z,50688
2017-03-25T08:57:04.258Z,65600
2017-03-25T08:58:04.260Z,78944
2017-03-25T08:59:04.257Z,70432
2017-03-25T09:00:04.247Z,63296
2017-03-25T09:01:04.246Z,67008
2017-03-25T09:02:04.251Z,58752
2017-03-25T09:03:04.239Z,56800
2017-03-25T09:04:04.247Z,74112
2017-03-25T09:05:04.235Z,84864
2017-03-25T09:06:04.232Z,88768
2017-03-25T09:07:04.231Z,93248
2017-03-25T09:08:04.225Z,94560
2017-03-25T09:09:04.231Z,92736
2017-03-25T09:10:04.223Z,87552
2017-03-25T09:11:03.911Z,83808
2017-03-25T09:12:04.219Z,84416
2017-03-25T09:13:04.213Z,84992
2017-03-25T09:14:04.221Z,85504
2017-03-25T09:15:04.215Z,86080
2017-03-25T09:16:03.899Z,88288
2017-03-25T09:17:04.199Z,89984
2017-03-25T09:18:04.198Z,89440
2017-03-25T09:19:04.196Z,83424
2017-03-25T09:20:03.893Z,83904
2017-03-25T09:21:04.187Z,92800
2017-03-25T09:22:03.880Z,96768
2017-03-25T09:23:04.190Z,95648
2017-03-25T09:24:04.179Z,92640
2017-03-25T09:25:03.873Z,92480
2017-03-25T09:26:03.873Z,91744
2017-03-25T09:27:03.867Z,87392
2017-03-25T09:28:04.169Z,85280
2017-03-25T09:29:03.861Z,84384
2017-03-25T09:30:03.856Z,84416
2017-03-25T09:31:03.858Z,82752
2017-03-25T09:32:03.848Z,81472
2017-03-25T09:33:03.849Z,80000
2017-03-25T09:34:04.148Z,76800
2017-03-25T09:35:03.844Z,75360
2017-03-25T09:36:03.836Z,76512
2017-03-25T09:37:03.830Z,76224
2017-03-25T09:38:03.836Z,75072
2017-03-25T09:39:03.831Z,75008
2017-03-25T09:40:03.823Z,78624
2017-03-25T09:41:04.129Z,82464
2017-03-25T09:42:03.818Z,86432
2017-03-25T09:43:03.819Z,88128
2017-03-25T09:44:03.811Z,85088
2017-03-25T09:45:03.813Z,85248
2017-03-25T09:46:04.101Z,85536
2017-03-25T09:47:03.808Z,87840
2017-03-25T09:48:04.108Z,90304
2017-03-25T09:49:03.796Z,91264
2017-03-25T09:50:04.102Z,89472
2017-03-25T09:51:03.787Z,88000
2017-03-25T09:52:04.085Z,87712
2017-03-25T09:53:04.089Z,87744
2017-03-25T09:54:04.087Z,87936
2017-03-25T09:55:04.076Z,91072
2017-03-25T09:56:04.070Z,93184
2017-03-25T09:57:04.075Z,91680
2017-03-25T09:58:04.067Z,99072
2017-03-25T09:59:04.068Z,106752
2017-03-25T10:00:04.065Z,100224
2017-03-25T10:01:04.055Z,93824
2017-03-25T10:02:04.059Z,96736
2017-03-25T10:03:04.057Z,100640
2017-03-25T10:04:04.048Z,101920
2017-03-25T10:05:03.442Z,85792
2017-03-25T10:06:03.443Z,84896
2017-03-25T10:07:04.042Z,101568
2017-03-25T10:08:04.042Z,96800
2017-03-25T10:09:04.037Z,84064
2017-03-25T10:10:04.071Z,75552
2017-03-25T10:11:04.032Z,78880
2017-03-25T10:12:04.043Z,96768
2017-03-25T10:13:04.032Z,103424
2017-03-25T10:14:04.027Z,88640
2017-03-25T10:15:04.027Z,78912
2017-03-25T10:16:04.020Z,80224
2017-03-25T10:17:04.027Z,74656
2017-03-25T10:18:04.011Z,83360
2017-03-25T10:19:04.020Z,103936
2017-03-25T10:20:04.013Z,100864
2017-03-25T10:21:04.005Z,83456
2017-03-25T10:22:04.008Z,70912
2017-03-25T10:23:03.998Z,69088
2017-03-25T10:24:04.002Z,75392
2017-03-25T10:25:03.995Z,87776
2017-03-25T10:26:03.995Z,90016
2017-03-25T10:27:03.987Z,81984
2017-03-25T10:28:03.993Z,77216
2017-03-25T10:29:03.984Z,79904
2017-03-25T10:30:03.691Z,93824
2017-03-25T10:31:03.975Z,105376
2017-03-25T10:32:03.974Z,91552
2017-03-25T10:33:03.980Z,78880
2017-03-25T10:34:03.974Z,75360
2017-03-25T10:35:03.974Z,69472
2017-03-25T10:36:03.961Z,62048
2017-03-25T10:37:03.959Z,58528
2017-03-25T10:38:03.957Z,56096
2017-03-25T10:39:03.649Z,49088
2017-03-25T10:40:03.947Z,41504
2017-03-25T10:41:03.347Z,39680
2017-03-25T10:42:03.942Z,39008
2017-03-25T10:43:03.939Z,38368
2017-03-25T10:44:03.630Z,40608
2017-03-25T10:45:03.931Z,56512
2017-03-25T10:46:03.924Z,183232
2017-03-25T10:47:03.920Z,0
2017-03-25T10:48:03.910Z,0
2017-03-25T10:49:03.915Z,0
2017-03-25T10:50:03.908Z,90432
2017-03-25T10:51:03.901Z,175648
2017-03-25T10:52:03.902Z,187072
2017-03-25T10:53:03.593Z,212512
2017-03-25T10:54:03.592Z,191296
2017-03-25T10:55:03.586Z,194048
2017-03-25T10:56:03.881Z,164992
2017-03-25T10:57:03.875Z,131200
2017-03-25T10:58:03.877Z,120032
2017-03-25T10:59:03.876Z,156672
2017-03-25T11:00:03.867Z,223552
2017-03-25T11:01:03.862Z,149024
2017-03-25T11:02:03.850Z,79744
2017-03-25T11:03:03.855Z,48224
2017-03-25T11:04:03.848Z,41632
2017-03-25T11:05:03.839Z,43712
2017-03-25T11:06:03.828Z,50208
2017-03-25T11:07:03.833Z,55520
2017-03-25T11:08:03.826Z,55200
2017-03-25T11:09:03.831Z,57760
2017-03-25T11:10:03.820Z,62624
2017-03-25T11:11:03.816Z,62912
2017-03-25T11:12:03.814Z,63232
2017-03-25T11:13:03.805Z,69280
2017-03-25T11:14:03.498Z,81984
2017-03-25T11:15:03.791Z,92544
2017-03-25T11:16:03.785Z,101024
2017-03-25T11:17:03.776Z,104160
2017-03-25T11:18:03.776Z,100288
2017-03-25T11:19:03.774Z,87424
2017-03-25T11:20:03.461Z,84704
2017-03-25T11:21:03.751Z,89056
2017-03-25T11:22:03.756Z,98048
2017-03-25T11:23:03.745Z,103872
2017-03-25T11:24:03.737Z,103232
2017-03-25T11:25:03.733Z,94336
2017-03-25T11:26:03.720Z,89856
2017-03-25T11:27:03.714Z,93120
2017-03-25T11:28:03.418Z,96192
2017-03-25T11:29:03.710Z,106624
2017-03-25T11:30:03.705Z,114240
2017-03-25T11:31:03.389Z,103232
2017-03-25T11:32:03.385Z,96736
2017-03-25T11:33:03.693Z,95648
2017-03-25T11:34:03.675Z,91456
2017-03-25T11:35:03.675Z,87136
2017-03-25T11:36:03.365Z,103584
2017-03-25T11:37:03.352Z,114240
2017-03-25T11:38:03.653Z,96640
2017-03-25T11:39:03.650Z,83520
2017-03-25T11:40:03.336Z,87968
2017-03-25T11:41:03.325Z,83616
2017-03-25T11:42:03.316Z,77120
2017-03-25T11:43:03.613Z,83488
2017-03-25T11:44:03.612Z,93280
2017-03-25T11:45:03.600Z,91712
2017-03-25T11:46:03.793Z,87072
2017-03-25T11:47:03.581Z,92064
2017-03-25T11:48:03.585Z,99552
2017-03-25T11:49:03.571Z,97600
2017-03-25T11:50:03.775Z,90368
2017-03-25T11:51:03.549Z,85696
2017-03-25T11:52:03.246Z,83360
2017-03-25T11:53:03.240Z,87904
2017-03-25T11:54:03.535Z,106272
2017-03-25T11:55:03.230Z,121440
2017-03-25T11:56:03.223Z,109408
2017-03-25T11:57:03.209Z,88768
2017-03-25T11:58:03.204Z,78880
2017-03-25T11:59:03.202Z,79424
2017-03-25T12:00:03.550Z,80320
2017-03-25T12:01:03.181Z,83040
2017-03-25T12:02:03.181Z,85600
2017-03-25T12:03:03.472Z,85760
2017-03-25T12:04:03.472Z,87648
2017-03-25T12:05:03.161Z,83648
2017-03-25T12:06:03.451Z,83360
2017-03-25T12:07:03.145Z,86144
2017-03-25T12:08:03.436Z,90816
2017-03-25T12:09:03.428Z,98272
2017-03-25T12:10:03.423Z,103712
2017-03-25T12:11:03.457Z,106880
2017-03-25T12:12:03.407Z,108352
2017-03-25T12:13:03.397Z,106848
2017-03-25T12:14:03.397Z,107008
2017-03-25T12:15:03.380Z,108480
2017-03-25T12:16:03.378Z,103104
2017-03-25T12:17:03.366Z,96416
2017-03-25T12:18:03.057Z,91552
2017-03-25T12:19:16.439Z,89088
2017-03-25T12:20:03.040Z,88128
2017-03-25T12:21:03.339Z,85920
2017-03-25T12:22:03.329Z,88384
2017-03-25T12:23:03.316Z,85920
2017-03-25T12:24:03.224Z,87648
2017-03-25T12:25:16.696Z,88992
2017-03-25T12:26:03.284Z,95552
2017-03-25T12:27:03.283Z,97664
2017-03-25T12:28:03.277Z,97280
2017-03-25T12:29:02.971Z,94784
2017-03-25T12:30:03.254Z,92896
2017-03-25T12:31:03.249Z,92288
2017-03-25T12:32:03.232Z,90176
2017-03-25T12:33:03.224Z,86208
2017-03-25T12:34:03.121Z,89216
2017-03-25T12:35:03.220Z,85088
2017-03-25T12:36:03.196Z,84704
2017-03-25T12:37:03.193Z,85376
2017-03-25T12:38:03.189Z,84512
2017-03-25T12:39:03.176Z,85600
2017-03-25T12:40:03.171Z,81056
2017-03-25T12:41:03.152Z,79584
2017-03-25T12:42:03.156Z,78496
2017-03-25T12:43:03.147Z,83264
2017-03-25T12:44:03.141Z,87488
2017-03-25T12:45:03.128Z,84192
2017-03-25T12:46:03.117Z,84640
2017-03-25T12:47:03.109Z,79744
2017-03-25T12:48:03.107Z,77056
2017-03-25T12:49:03.095Z,76032
2017-03-25T12:50:02.786Z,77920
2017-03-25T12:51:02.782Z,90624
2017-03-25T12:52:03.076Z,104512
2017-03-25T12:53:03.077Z,114112
2017-03-25T12:54:03.060Z,88064
2017-03-25T12:55:03.051Z,69280
2017-03-25T12:56:03.045Z,70336
2017-03-25T12:57:16.429Z,82496
2017-03-25T12:58:03.032Z,85472
2017-03-25T12:59:03.026Z,81728
2017-03-25T13:00:03.024Z,77152
2017-03-25T13:01:03.011Z,75776
2017-03-25T13:02:03.221Z,74752
2017-03-25T13:03:16.392Z,72800
2017-03-25T13:04:02.990Z,71968
2017-03-25T13:05:02.984Z,77632
2017-03-25T13:06:02.674Z,78272
2017-03-25T13:07:03.165Z,75840
2017-03-25T13:08:03.162Z,70368
2017-03-25T13:09:02.646Z,78080
2017-03-25T13:10:02.645Z,78176
2017-03-25T13:11:02.937Z,76896
2017-03-25T13:12:02.621Z,78304
2017-03-25T13:13:02.920Z,79872
2017-03-25T13:14:02.914Z,82688
2017-03-25T13:15:02.907Z,82240
2017-03-25T13:16:02.890Z,77184
2017-03-25T13:17:02.590Z,75424
2017-03-25T13:18:02.578Z,73952
2017-03-25T13:19:02.865Z,71552
2017-03-25T13:20:02.561Z,66208
2017-03-25T13:21:02.849Z,67552
2017-03-25T13:22:02.889Z,66880
2017-03-25T13:23:02.838Z,63392
2017-03-25T13:24:02.826Z,59680
2017-03-25T13:25:02.821Z,57120
2017-03-25T13:26:02.506Z,57440
2017-03-25T13:27:02.794Z,63392
2017-03-25T13:28:02.848Z,66944
2017-03-25T13:29:02.786Z,72288
2017-03-25T13:30:02.775Z,73472
2017-03-25T13:31:02.765Z,76064
2017-03-25T13:32:02.754Z,73056